Aviation Digital Data Service (ADDS)

Output produced by TAFs form (0608 UTC 22 February 2017)
found at http://aviationweather.gov/adds/tafs/
 
KTCC 220522Z 2206/2306 27012G20KT P6SM SCT200 
     FM221500 26018G28KT P6SM SCT150 BKN200 
     FM221900 25022G32KT P6SM BKN150